Time;durP1;ratioP1;P1;durP2;ratioP2;P2;SDS_P1;SDS_P2;PMS_P1;PMS_P2;Temp;Humidity;BMP_temperature;BMP_pressure;BME280_temperature;BME280_humidity;BME280_pressure;Samples;Min_cycle;Max_cycle;Signal;HPM_P1;HPM_P2
2022/06/24 00:00:18;;;;;;;5.23;1.83;;;14.40;99.90;;;;;;5091551;28;20179;-66
2022/06/24 00:02:49;;;;;;;4.70;2.03;;;14.70;99.90;;;;;;5091425;28;20203;-66
2022/06/24 00:05:17;;;;;;;9.83;2.67;;;14.90;99.90;;;;;;5091500;28;20692;-66
2022/06/24 00:07:54;;;;;;;5.43;1.90;;;15.00;99.90;;;;;;5091387;28;20171;-66
2022/06/24 00:10:23;;;;;;;6.57;2.40;;;15.10;99.90;;;;;;5091152;28;20186;-67
2022/06/24 00:12:52;;;;;;;9.53;3.97;;;15.40;99.90;;;;;;5086952;28;20185;-66
2022/06/24 00:15:34;;;;;;;7.47;3.07;;;15.40;99.90;;;;;;5083083;28;20266;-66
2022/06/24 00:18:20;;;;;;;3.47;2.30;;;15.60;99.90;;;;;;5089915;28;20660;-67
2022/06/24 00:20:50;;;;;;;3.87;2.30;;;15.80;99.90;;;;;;5072206;28;20624;-67
2022/06/24 00:23:22;;;;;;;5.40;2.13;;;15.60;99.90;;;;;;5092363;28;20211;-67
2022/06/24 00:25:50;;;;;;;8.83;2.30;;;15.70;99.90;;;;;;5094976;28;20223;-67
2022/06/24 00:28:24;;;;;;;2.93;2.00;;;15.90;99.90;;;;;;5095217;28;20176;-66
2022/06/24 00:30:52;;;;;;;5.10;2.30;;;15.80;99.90;;;;;;5095302;28;20172;-66
2022/06/24 00:33:24;;;;;;;3.27;1.80;;;15.90;99.90;;;;;;5086570;28;20201;-66
2022/06/24 00:35:58;;;;;;;7.73;2.00;;;16.20;99.90;;;;;;5083940;28;20619;-66
2022/06/24 00:38:30;;;;;;;4.20;1.63;;;16.40;99.90;;;;;;5083200;28;20676;-66
2022/06/24 00:41:06;;;;;;;6.23;1.60;;;16.60;99.90;;;;;;5074841;28;20219;-65
2022/06/24 00:43:40;;;;;;;5.57;1.70;;;16.90;99.90;;;;;;5074657;28;20183;-66
2022/06/24 00:46:35;;;;;;;3.87;1.80;;;16.90;99.90;;;;;;5074604;28;20183;-66
2022/06/24 00:49:05;;;;;;;4.83;1.73;;;16.80;99.90;;;;;;5074636;28;20214;-67
2022/06/24 00:51:37;;;;;;;7.23;2.50;;;17.00;99.90;;;;;;5081030;28;20199;-67
2022/06/24 00:54:13;;;;;;;4.77;2.20;;;17.00;99.90;;;;;;5085921;28;20171;-66
2022/06/24 00:56:41;;;;;;;6.57;2.73;;;17.30;99.90;;;;;;5093809;28;20242;-68
2022/06/24 00:59:09;;;;;;;8.40;2.93;;;17.30;99.90;;;;;;5093542;28;20687;-67
2022/06/24 01:01:42;;;;;;;4.60;2.63;;;17.50;99.90;;;;;;5093254;28;20204;-67
2022/06/24 01:04:11;;;;;;;17.73;4.67;;;17.60;99.90;;;;;;5092907;28;20179;-68
2022/06/24 01:06:41;;;;;;;4.47;2.57;;;17.60;99.90;;;;;;5092878;28;20205;-67
2022/06/24 01:09:09;;;;;;;4.13;2.30;;;17.50;99.90;;;;;;5074551;28;20575;-67
2022/06/24 01:11:40;;;;;;;5.80;2.17;;;17.70;99.90;;;;;;5092862;28;20207;-67
2022/06/24 01:14:08;;;;;;;6.40;2.20;;;17.50;99.90;;;;;;5092702;28;20220;-67
2022/06/24 01:16:35;;;;;;;7.73;2.53;;;17.40;99.90;;;;;;5094150;28;20177;-66
2022/06/24 01:19:06;;;;;;;7.90;2.60;;;17.50;99.90;;;;;;5094798;28;20516;-64
2022/06/24 01:21:48;;;;;;;9.40;2.27;;;17.70;99.90;;;;;;5094051;28;20222;-65
2022/06/24 01:24:19;;;;;;;8.37;2.90;;;17.40;99.90;;;;;;5094310;28;20178;-66
2022/06/24 01:26:48;;;;;;;8.00;2.53;;;17.80;99.90;;;;;;5094105;28;20316;-65
2022/06/24 01:29:17;;;;;;;5.03;2.40;;;18.00;99.90;;;;;;5094095;28;20660;-65
2022/06/24 01:31:48;;;;;;;6.93;2.27;;;17.90;99.90;;;;;;5094064;28;20182;-65
2022/06/24 01:34:16;;;;;;;9.60;2.40;;;17.80;99.90;;;;;;5075357;28;20542;-66
2022/06/24 01:36:44;;;;;;;13.57;2.27;;;18.00;99.90;;;;;;5093881;28;20179;-66
2022/06/24 01:39:11;;;;;;;6.33;2.20;;;18.40;99.90;;;;;;5093906;28;20219;-66
2022/06/24 01:41:39;;;;;;;10.60;1.93;;;18.60;99.90;;;;;;5093709;28;20228;-65
2022/06/24 01:44:06;;;;;;;18.57;2.70;;;18.80;99.90;;;;;;5093861;28;20648;-65
2022/06/24 01:46:34;;;;;;;9.23;1.83;;;19.00;99.90;;;;;;5093823;28;20220;-66
2022/06/24 01:49:02;;;;;;;10.33;1.60;;;19.10;99.90;;;;;;5093758;28;20258;-67
2022/06/24 01:51:30;;;;;;;8.30;1.37;;;19.30;99.90;;;;;;5093740;28;20172;-67
2022/06/24 01:53:57;;;;;;;3.13;1.10;;;19.10;99.90;;;;;;5093426;28;20227;-66
2022/06/24 01:56:25;;;;;;;3.70;0.90;;;19.20;99.90;;;;;;5093646;28;20174;-66
2022/06/24 01:58:52;;;;;;;8.80;1.77;;;18.80;99.90;;;;;;5093371;28;20214;-66
2022/06/24 02:01:20;;;;;;;6.87;1.20;;;18.30;99.90;;;;;;5093651;28;20179;-66
2022/06/24 02:03:47;;;;;;;3.97;1.40;;;17.90;99.90;;;;;;5093392;28;20596;-67
2022/06/24 02:06:15;;;;;;;3.73;1.10;;;17.90;99.90;;;;;;5093292;28;20220;-66
2022/06/24 02:08:43;;;;;;;5.40;1.10;;;18.20;99.90;;;;;;5093363;28;20177;-66
2022/06/24 02:13:59;;;;;;;3.03;1.00;;;18.90;99.90;;;;;;5093546;28;20190;-68
2022/06/24 02:16:27;;;;;;;4.47;0.90;;;18.90;99.90;;;;;;5093200;28;20186;-67
2022/06/24 02:18:58;;;;;;;2.27;1.47;;;19.10;99.90;;;;;;5092948;28;20197;-68
2022/06/24 02:21:26;;;;;;;3.73;1.80;;;19.10;99.90;;;;;;5092981;28;20229;-67
2022/06/24 02:23:54;;;;;;;2.60;1.60;;;18.90;99.90;;;;;;5092832;28;20236;-66
2022/06/24 02:26:23;;;;;;;5.07;1.93;;;19.00;99.90;;;;;;5074584;28;20276;-66
2022/06/24 02:28:50;;;;;;;2.20;1.50;;;19.00;99.90;;;;;;5092856;28;20184;-66
2022/06/24 02:31:18;;;;;;;2.47;1.20;;;18.70;99.90;;;;;;5092887;28;20186;-66
2022/06/24 02:33:46;;;;;;;3.70;1.70;;;18.90;99.90;;;;;;5092800;28;20254;-65
2022/06/24 02:36:14;;;;;;;2.97;1.43;;;19.10;99.90;;;;;;5093255;28;20525;-66
2022/06/24 02:38:42;;;;;;;1.30;1.00;;;19.30;99.90;;;;;;5092679;28;20276;-67
2022/06/24 02:41:10;;;;;;;2.77;1.07;;;19.10;99.90;;;;;;5092908;28;20259;-68
2022/06/24 02:43:39;;;;;;;4.77;0.80;;;19.10;99.90;;;;;;5092404;28;20278;-68
2022/06/24 02:46:06;;;;;;;1.50;0.80;;;19.00;99.90;;;;;;5091659;28;20599;-66
2022/06/24 02:48:35;;;;;;;1.47;1.00;;;19.20;99.90;;;;;;5092385;28;20222;-68
2022/06/24 02:51:05;;;;;;;2.73;1.20;;;19.60;99.90;;;;;;5092409;28;20224;-67
2022/06/24 02:53:34;;;;;;;6.03;4.90;;;19.50;99.90;;;;;;5092393;28;20178;-66
2022/06/24 02:56:10;;;;;;;2.20;1.23;;;19.20;99.90;;;;;;5092388;28;20182;-67
2022/06/24 02:58:38;;;;;;;3.20;1.57;;;19.10;99.90;;;;;;5092327;28;20197;-65
2022/06/24 03:01:06;;;;;;;2.40;2.20;;;19.10;99.90;;;;;;5092313;28;20172;-67
2022/06/24 03:03:34;;;;;;;6.73;2.97;;;19.10;99.90;;;;;;5092101;28;20213;-66
2022/06/24 03:06:02;;;;;;;4.33;2.20;;;19.10;99.90;;;;;;5092330;28;20512;-67
2022/06/24 03:08:30;;;;;;;3.93;2.93;;;19.10;99.90;;;;;;5092334;28;20527;-66
2022/06/24 03:10:57;;;;;;;2.40;1.30;;;19.40;99.90;;;;;;5092225;28;20700;-66
2022/06/24 03:13:25;;;;;;;2.03;1.10;;;19.60;99.90;;;;;;5092114;28;20533;-68
2022/06/24 03:15:52;;;;;;;4.13;3.80;;;19.40;99.90;;;;;;5092585;28;20661;-66
2022/06/24 03:18:20;;;;;;;3.63;3.00;;;19.40;99.90;;;;;;5091937;28;20187;-67
2022/06/24 03:20:48;;;;;;;5.47;3.37;;;19.50;99.90;;;;;;5092309;28;20310;-66
2022/06/24 03:23:16;;;;;;;4.67;4.27;;;19.20;99.90;;;;;;5091850;28;20725;-66
2022/06/24 03:25:44;;;;;;;3.00;2.50;;;19.20;99.90;;;;;;5091778;28;20216;-66
2022/06/24 03:28:12;;;;;;;4.63;1.53;;;19.50;99.90;;;;;;5091974;28;20206;-66
2022/06/24 03:30:39;;;;;;;2.40;1.67;;;20.00;99.90;;;;;;5091905;28;20239;-65
2022/06/24 03:33:07;;;;;;;3.03;2.63;;;19.70;99.90;;;;;;5091917;28;20168;-66
2022/06/24 03:35:34;;;;;;;5.43;1.70;;;19.50;99.90;;;;;;5091815;28;20266;-66
2022/06/24 03:38:02;;;;;;;1.20;0.83;;;19.20;99.90;;;;;;5092027;28;20618;-67
2022/06/24 03:40:29;;;;;;;1.70;1.00;;;19.10;99.90;;;;;;5092077;28;20175;-68
2022/06/24 03:42:57;;;;;;;2.33;1.40;;;18.90;99.90;;;;;;5091778;28;20212;-66
2022/06/24 03:45:24;;;;;;;9.70;6.87;;;19.00;99.90;;;;;;5073531;28;20596;-66
2022/06/24 03:47:51;;;;;;;9.20;8.40;;;19.00;99.90;;;;;;5091639;28;20173;-65
2022/06/24 03:50:19;;;;;;;3.30;2.63;;;18.90;99.90;;;;;;5090461;28;20195;-66
2022/06/24 03:52:46;;;;;;;2.23;1.50;;;18.80;99.90;;;;;;5091192;28;20194;-65
2022/06/24 03:55:13;;;;;;;2.53;1.60;;;18.70;99.90;;;;;;5091255;28;20186;-65
2022/06/24 03:57:41;;;;;;;2.67;1.03;;;18.70;99.90;;;;;;5093112;28;20224;-64
2022/06/24 04:00:09;;;;;;;3.23;2.27;;;18.50;99.90;;;;;;5095428;28;20573;-66
2022/06/24 04:02:37;;;;;;;3.73;0.97;;;18.50;99.90;;;;;;5095767;28;20319;-65
2022/06/24 04:05:05;;;;;;;2.43;1.10;;;18.50;99.90;;;;;;5095567;28;20203;-65
2022/06/24 04:07:33;;;;;;;2.53;1.33;;;18.40;99.90;;;;;;5094559;28;20186;-64
2022/06/24 04:10:00;;;;;;;2.67;0.87;;;18.30;99.90;;;;;;5090809;28;20172;-65
2022/06/24 04:12:27;;;;;;;1.50;0.90;;;18.20;99.90;;;;;;5094755;28;20232;-66
2022/06/24 04:17:40;;;;;;;2.30;1.03;;;18.00;99.90;;;;;;5095353;28;20190;-65
2022/06/24 04:20:08;;;;;;;3.60;1.97;;;18.00;99.90;;;;;;5095418;28;20597;-65
2022/06/24 04:22:36;;;;;;;3.00;1.67;;;18.00;99.90;;;;;;5094551;28;20636;-67
2022/06/24 04:25:04;;;;;;;3.00;1.03;;;18.00;99.90;;;;;;5095151;28;20529;-66
2022/06/24 04:27:31;;;;;;;2.27;1.50;;;18.00;99.90;;;;;;5094896;28;20257;-65
2022/06/24 04:30:00;;;;;;;4.10;2.37;;;18.10;99.90;;;;;;5094863;28;20183;-66
2022/06/24 04:32:28;;;;;;;1.43;1.03;;;18.10;99.90;;;;;;5095067;28;20179;-64
2022/06/24 04:34:55;;;;;;;1.33;0.70;;;18.00;99.90;;;;;;5076560;28;20266;-65
2022/06/24 04:37:26;;;;;;;1.23;0.63;;;18.00;99.90;;;;;;5094306;28;20326;-65
2022/06/24 04:39:56;;;;;;;1.50;0.87;;;17.90;99.90;;;;;;5093344;28;20195;-65
2022/06/24 04:42:23;;;;;;;3.77;1.40;;;17.90;99.90;;;;;;5088224;28;20247;-66
2022/06/24 04:44:50;;;;;;;3.47;0.60;;;17.90;99.90;;;;;;5090198;28;20180;-65
2022/06/24 04:47:18;;;;;;;1.53;0.90;;;17.80;99.90;;;;;;5086162;28;20267;-65
2022/06/24 04:49:46;;;;;;;3.27;1.00;;;17.80;99.90;;;;;;5092569;28;20211;-66
2022/06/24 04:52:15;;;;;;;0.97;0.70;;;17.80;99.90;;;;;;5094689;28;20213;-66
2022/06/24 04:54:44;;;;;;;0.90;0.50;;;17.80;99.90;;;;;;5094308;28;20645;-66
2022/06/24 04:57:11;;;;;;;2.13;0.90;;;17.80;99.90;;;;;;5094476;28;20188;-66
2022/06/24 04:59:39;;;;;;;5.57;1.17;;;17.70;99.90;;;;;;5093372;28;20630;-66
2022/06/24 05:02:06;;;;;;;3.60;0.83;;;17.70;99.90;;;;;;5094150;28;20214;-65
2022/06/24 05:04:35;;;;;;;3.37;1.00;;;17.60;99.90;;;;;;5093886;28;20191;-65
2022/06/24 05:07:03;;;;;;;2.97;0.70;;;17.60;99.90;;;;;;5094638;28;20182;-65
2022/06/24 05:09:30;;;;;;;1.67;0.80;;;17.60;99.90;;;;;;5093411;28;20260;-65
2022/06/24 05:11:58;;;;;;;3.70;1.13;;;17.60;99.90;;;;;;5094381;28;20665;-64
2022/06/24 05:14:26;;;;;;;5.67;1.17;;;17.60;99.90;;;;;;5094324;28;20338;-64
2022/06/24 05:16:53;;;;;;;3.03;1.53;;;17.60;99.90;;;;;;5093515;28;20210;-64
2022/06/24 05:19:21;;;;;;;1.67;0.77;;;17.60;99.90;;;;;;5093898;28;20259;-66
2022/06/24 05:21:48;;;;;;;2.50;1.10;;;17.70;99.90;;;;;;5093793;28;22147;-65
2022/06/24 05:24:16;;;;;;;2.43;1.27;;;17.80;99.90;;;;;;5093447;28;20188;-67
2022/06/24 05:26:45;;;;;;;3.70;1.00;;;17.80;99.90;;;;;;5079790;28;20235;-65
2022/06/24 05:29:13;;;;;;;5.73;1.40;;;17.80;99.90;;;;;;5091265;28;20191;-65
2022/06/24 05:31:40;;;;;;;5.50;1.10;;;17.80;99.90;;;;;;5078704;28;20258;-66
2022/06/24 05:34:08;;;;;;;3.20;0.97;;;17.70;99.90;;;;;;5073692;28;20230;-65
2022/06/24 05:36:35;;;;;;;1.50;1.10;;;17.70;99.90;;;;;;5073786;28;20245;-65
2022/06/24 05:39:05;;;;;;;3.13;1.70;;;17.70;99.90;;;;;;5073721;28;20175;-65
2022/06/24 05:41:33;;;;;;;2.80;1.10;;;17.70;99.90;;;;;;5073575;28;20241;-67
2022/06/24 05:44:01;;;;;;;3.27;1.00;;;17.60;99.90;;;;;;5089503;28;20232;-65
2022/06/24 05:46:28;;;;;;;4.13;1.33;;;17.60;99.90;;;;;;5093467;28;20191;-65
2022/06/24 05:48:57;;;;;;;3.20;1.50;;;17.50;99.90;;;;;;5093523;28;20191;-66
2022/06/24 05:51:25;;;;;;;5.17;1.30;;;17.40;99.90;;;;;;5093601;28;20172;-67
2022/06/24 05:56:37;;;;;;;2.73;1.70;;;17.30;99.90;;;;;;5100009;28;20190;-65
2022/06/24 05:59:05;;;;;;;8.30;2.00;;;17.20;99.90;;;;;;5093358;28;20267;-66
2022/06/24 06:01:32;;;;;;;6.20;1.83;;;17.20;99.90;;;;;;5092140;28;20182;-66
2022/06/24 06:03:59;;;;;;;3.40;1.77;;;17.10;99.90;;;;;;5091987;28;20682;-66
2022/06/24 06:06:27;;;;;;;4.80;1.53;;;17.10;99.90;;;;;;5069507;28;20195;-66
2022/06/24 06:08:54;;;;;;;4.80;1.80;;;17.10;99.90;;;;;;5092764;28;20316;-65
2022/06/24 06:11:23;;;;;;;4.20;1.47;;;17.00;99.90;;;;;;5092867;28;20170;-66
2022/06/24 06:13:54;;;;;;;6.67;2.10;;;16.90;99.90;;;;;;5087210;28;20183;-66
2022/06/24 06:16:22;;;;;;;7.27;1.77;;;16.80;99.90;;;;;;5087825;28;20202;-65
2022/06/24 06:18:50;;;;;;;10.20;2.50;;;16.70;99.90;;;;;;5092345;28;20320;-67
2022/06/24 06:21:18;;;;;;;3.17;1.50;;;16.60;99.90;;;;;;5091591;28;20171;-67
2022/06/24 06:23:46;;;;;;;5.63;1.70;;;16.50;99.90;;;;;;5088007;28;20214;-66
2022/06/24 06:26:14;;;;;;;6.07;2.33;;;16.50;99.90;;;;;;5092497;28;20306;-66
2022/06/24 06:28:42;;;;;;;7.30;2.07;;;16.30;99.90;;;;;;5092635;28;20340;-65
2022/06/24 06:31:10;;;;;;;5.47;1.90;;;16.20;99.90;;;;;;5092983;28;20538;-67
2022/06/24 06:33:38;;;;;;;6.27;2.00;;;16.10;99.90;;;;;;5091489;28;20286;-67
2022/06/24 06:36:10;;;;;;;5.03;1.60;;;15.90;99.90;;;;;;5092396;28;20664;-67
2022/06/24 06:38:38;;;;;;;6.87;1.90;;;15.90;99.90;;;;;;5073449;28;20172;-65
2022/06/24 06:41:05;;;;;;;5.83;1.90;;;15.80;99.90;;;;;;5092026;28;20206;-66
2022/06/24 06:43:33;;;;;;;5.97;2.23;;;15.80;99.90;;;;;;5092243;28;20234;-66
2022/06/24 06:46:00;;;;;;;3.03;1.90;;;15.80;99.90;;;;;;5092389;28;20668;-66
2022/06/24 06:48:28;;;;;;;6.53;1.90;;;16.10;99.90;;;;;;5092300;28;20171;-65
2022/06/24 06:50:56;;;;;;;2.60;1.40;;;16.00;99.90;;;;;;5092528;28;20194;-66
2022/06/24 06:53:25;;;;;;;3.00;1.43;;;16.00;99.90;;;;;;5092217;28;20179;-66
2022/06/24 06:55:53;;;;;;;5.20;1.20;;;16.00;99.90;;;;;;5092275;28;20558;-64
2022/06/24 06:58:24;;;;;;;1.70;1.27;;;15.90;99.90;;;;;;5092352;28;20711;-65
2022/06/24 07:00:52;;;;;;;2.60;1.30;;;15.80;99.90;;;;;;5092309;28;20175;-65
2022/06/24 07:03:20;;;;;;;5.00;1.17;;;15.70;99.90;;;;;;5073632;28;20215;-67
2022/06/24 07:05:48;;;;;;;3.60;1.30;;;15.50;99.90;;;;;;5092276;28;20664;-65
2022/06/24 07:08:16;;;;;;;4.60;1.97;;;15.40;99.90;;;;;;5091951;28;20186;-63
2022/06/24 07:10:45;;;;;;;4.87;1.50;;;15.20;99.90;;;;;;5091169;28;20183;-64
2022/06/24 07:13:13;;;;;;;3.13;1.40;;;15.00;99.90;;;;;;5092031;28;20171;-66
2022/06/24 07:15:40;;;;;;;8.33;1.70;;;14.80;99.90;;;;;;5092087;28;20235;-66
2022/06/24 07:18:08;;;;;;;4.40;1.93;;;14.60;99.90;;;;;;5091978;28;20176;-65
2022/06/24 07:20:36;;;;;;;7.77;2.00;;;14.50;99.90;;;;;;5092350;28;20174;-67
2022/06/24 07:23:04;;;;;;;5.87;2.20;;;14.30;99.90;;;;;;5091585;28;20219;-67
2022/06/24 07:25:32;;;;;;;6.33;2.03;;;14.20;99.90;;;;;;5091509;28;20175;-66
2022/06/24 07:27:59;;;;;;;8.13;1.97;;;14.10;99.90;;;;;;5092030;28;20776;-67
2022/06/24 07:30:27;;;;;;;6.17;2.30;;;14.00;99.90;;;;;;5091971;28;20187;-67
2022/06/24 07:32:55;;;;;;;7.10;1.80;;;13.90;99.90;;;;;;5090930;28;20187;-66
2022/06/24 07:35:23;;;;;;;5.23;2.30;;;13.80;99.90;;;;;;5091839;28;20555;-66
2022/06/24 07:37:50;;;;;;;5.37;1.83;;;13.70;99.90;;;;;;5071448;28;20201;-66
2022/06/24 07:40:18;;;;;;;8.27;2.60;;;13.70;99.90;;;;;;5071784;28;20172;-65
2022/06/24 07:42:45;;;;;;;5.40;2.60;;;13.60;99.90;;;;;;5072746;28;20225;-68
2022/06/24 07:45:13;;;;;;;5.53;2.60;;;13.50;99.90;;;;;;5091783;28;20228;-66
2022/06/24 07:47:40;;;;;;;7.50;3.33;;;13.50;99.90;;;;;;5091798;28;20265;-68
2022/06/24 07:50:08;;;;;;;5.83;2.70;;;13.60;99.90;;;;;;5091868;28;20182;-67
2022/06/24 07:52:35;;;;;;;4.10;2.70;;;13.60;99.90;;;;;;5091801;28;20182;-67
2022/06/24 07:57:48;;;;;;;6.13;2.20;;;13.50;99.90;;;;;;5092005;28;20272;-66
2022/06/24 08:00:16;;;;;;;7.37;2.43;;;13.40;99.90;;;;;;5091526;28;20184;-67
2022/06/24 08:02:43;;;;;;;4.43;2.13;;;13.30;99.90;;;;;;5091521;28;20649;-67
2022/06/24 08:05:11;;;;;;;9.03;2.20;;;13.20;99.90;;;;;;5091330;28;20189;-66
2022/06/24 08:07:38;;;;;;;3.37;2.10;;;13.00;99.90;;;;;;5090815;28;20182;-66
2022/06/24 08:10:06;;;;;;;6.13;2.63;;;12.80;99.90;;;;;;5089932;28;20700;-67
2022/06/24 08:12:33;;;;;;;6.23;2.20;;;12.70;99.90;;;;;;5091537;28;20564;-65
2022/06/24 08:15:01;;;;;;;3.17;2.10;;;12.60;99.90;;;;;;5091336;28;20193;-67
2022/06/24 08:17:28;;;;;;;7.13;2.10;;;12.50;99.90;;;;;;5091569;28;20173;-68
2022/06/24 08:19:55;;;;;;;4.63;2.10;;;12.40;99.90;;;;;;5091129;28;20727;-67
2022/06/24 08:22:23;;;;;;;5.40;2.00;;;12.30;99.90;;;;;;5089576;28;20221;-66
2022/06/24 08:24:50;;;;;;;4.50;1.77;;;12.20;99.90;;;;;;5089229;28;20187;-67
2022/06/24 08:27:17;;;;;;;6.63;2.80;;;12.10;99.90;;;;;;5089402;28;20248;-67
2022/06/24 08:29:45;;;;;;;7.73;2.10;;;12.00;99.90;;;;;;5089279;28;20177;-66
2022/06/24 08:32:12;;;;;;;5.93;2.40;;;11.90;99.90;;;;;;5089646;28;20260;-67
2022/06/24 08:34:39;;;;;;;5.10;2.40;;;11.80;99.90;;;;;;5089352;28;20215;-66
2022/06/24 08:37:06;;;;;;;6.07;2.50;;;11.70;99.90;;;;;;5090752;28;20660;-66
2022/06/24 08:39:34;;;;;;;8.23;2.70;;;11.60;99.90;;;;;;5091439;28;20174;-65
2022/06/24 08:42:03;;;;;;;5.50;2.40;;;11.60;99.90;;;;;;5091477;28;20657;-66
2022/06/24 08:44:30;;;;;;;3.93;2.77;;;11.50;99.90;;;;;;5092697;28;20548;-67
2022/06/24 08:46:57;;;;;;;9.33;2.87;;;11.50;99.90;;;;;;5094721;28;20182;-66
2022/06/24 08:49:26;;;;;;;7.27;3.23;;;11.40;99.90;;;;;;5094709;28;20180;-65
2022/06/24 08:51:59;;;;;;;5.10;3.20;;;11.60;99.90;;;;;;5094998;28;20184;-66
2022/06/24 08:54:32;;;;;;;6.80;3.13;;;11.60;99.90;;;;;;5076577;28;20190;-66
2022/06/24 08:57:00;;;;;;;6.83;3.53;;;11.50;99.90;;;;;;5094561;28;20274;-65
2022/06/24 08:59:31;;;;;;;13.07;3.57;;;11.50;99.90;;;;;;5094936;28;20317;-65
2022/06/24 09:01:58;;;;;;;6.23;3.53;;;11.40;99.90;;;;;;5094569;28;20239;-66
2022/06/24 09:04:26;;;;;;;6.43;3.37;;;11.40;99.90;;;;;;5094532;28;20255;-66
2022/06/24 09:06:54;;;;;;;8.47;3.43;;;11.40;99.90;;;;;;5094536;28;20184;-66
2022/06/24 09:09:26;;;;;;;11.23;3.50;;;11.40;99.90;;;;;;5094723;28;20168;-67
2022/06/24 09:11:58;;;;;;;11.97;3.40;;;11.30;99.90;;;;;;5094562;28;20308;-66
2022/06/24 09:14:49;;;;;;;7.60;4.17;;;11.40;99.90;;;;;;5076330;28;20228;-67
2022/06/24 09:17:17;;;;;;;11.53;4.50;;;11.40;99.90;;;;;;5094361;28;20189;-65
2022/06/24 09:19:44;;;;;;;7.77;3.97;;;11.50;99.90;;;;;;5094009;28;20189;-66
2022/06/24 09:22:11;;;;;;;12.53;3.80;;;11.60;99.90;;;;;;5094347;28;20195;-66
2022/06/24 09:24:51;;;;;;;4.13;2.70;;;11.60;99.90;;;;;;5094324;28;20181;-66
2022/06/24 09:27:20;;;;;;;9.20;3.37;;;11.60;99.90;;;;;;5093839;28;20303;-65
2022/06/24 09:29:48;;;;;;;4.30;2.77;;;11.70;99.90;;;;;;5094242;28;20181;-66
2022/06/24 09:32:16;;;;;;;5.20;2.70;;;11.60;99.90;;;;;;5093392;28;20268;-67
2022/06/24 09:35:04;;;;;;;6.63;3.03;;;11.80;99.90;;;;;;5076576;28;20321;-68
2022/06/24 09:37:42;;;;;;;5.57;2.50;;;11.70;99.90;;;;;;5095027;28;20196;-68
2022/06/24 09:40:17;;;;;;;8.93;3.23;;;11.70;99.90;;;;;;5092697;28;20219;-66
2022/06/24 09:43:13;;;;;;;6.53;2.87;;;11.70;99.90;;;;;;5086777;28;20211;-67
2022/06/24 09:45:49;;;;;;;12.43;2.90;;;11.60;99.90;;;;;;5085505;28;20172;-64
2022/06/24 09:48:33;;;;;;;5.23;2.90;;;11.60;99.90;;;;;;5086572;28;20180;-65
2022/06/24 09:51:06;;;;;;;10.90;3.20;;;11.50;99.90;;;;;;5083230;28;20176;-65
2022/06/24 09:53:40;;;;;;;8.00;3.20;;;11.50;99.90;;;;;;5070654;28;20181;-67
2022/06/24 09:56:10;;;;;;;5.57;2.70;;;11.40;99.90;;;;;;5094404;28;20656;-66
2022/06/24 09:58:39;;;;;;;4.47;3.50;;;11.50;99.90;;;;;;5094757;28;20176;-67
2022/06/24 10:01:07;;;;;;;7.63;3.83;;;11.40;99.90;;;;;;5076677;28;20199;-68
2022/06/24 10:03:37;;;;;;;7.47;4.20;;;11.40;99.90;;;;;;5094173;28;20216;-68
2022/06/24 10:06:09;;;;;;;10.37;4.10;;;11.30;99.90;;;;;;5093926;28;20203;-67
2022/06/24 10:08:38;;;;;;;9.77;4.43;;;11.40;99.90;;;;;;5076785;28;20362;-68
2022/06/24 10:11:12;;;;;;;7.83;4.23;;;11.30;99.90;;;;;;5093857;28;20207;-66
2022/06/24 10:13:40;;;;;;;6.93;4.17;;;11.30;99.90;;;;;;5093609;28;20178;-68
2022/06/24 10:16:08;;;;;;;7.30;3.80;;;11.40;99.90;;;;;;5087749;28;20184;-66
2022/06/24 10:18:42;;;;;;;8.10;3.83;;;11.40;99.90;;;;;;5076577;28;20176;-67
2022/06/24 10:21:11;;;;;;;7.83;3.47;;;11.30;99.90;;;;;;5074347;28;20183;-66
2022/06/24 10:23:49;;;;;;;7.57;3.97;;;11.70;99.90;;;;;;5074983;28;20694;-67
2022/06/24 10:26:24;;;;;;;5.77;3.60;;;11.60;99.90;;;;;;5093874;28;20220;-67
2022/06/24 10:29:03;;;;;;;5.47;3.50;;;11.70;99.90;;;;;;5094003;28;20186;-68
2022/06/24 10:31:49;;;;;;;4.53;3.37;;;11.80;99.90;;;;;;5094080;28;20193;-66
2022/06/24 10:34:32;;;;;;;6.27;3.90;;;11.80;99.90;;;;;;5094312;28;20208;-66
2022/06/24 10:37:03;;;;;;;5.30;3.23;;;11.70;99.90;;;;;;5093918;28;20221;-67
2022/06/24 10:39:46;;;;;;;3.77;3.17;;;11.90;99.90;;;;;;5094306;28;20185;-67
2022/06/24 10:42:20;;;;;;;5.97;4.30;;;12.00;99.90;;;;;;5091392;28;20215;-65
2022/06/24 10:45:05;;;;;;;4.80;3.60;;;12.10;99.90;;;;;;5093993;28;20285;-66
2022/06/24 10:47:40;;;;;;;5.87;4.77;;;12.00;99.90;;;;;;5094370;28;20547;-66
2022/06/24 10:50:14;;;;;;;9.50;5.30;;;12.00;99.90;;;;;;5093738;28;20260;-67
2022/06/24 10:52:47;;;;;;;9.03;6.20;;;11.90;99.90;;;;;;5093542;28;20186;-66
2022/06/24 10:55:18;;;;;;;10.17;5.60;;;11.80;99.90;;;;;;5094097;28;20642;-66
2022/06/24 10:57:46;;;;;;;9.37;6.13;;;11.70;99.90;;;;;;5075698;28;20179;-67
2022/06/24 11:00:27;;;;;;;9.33;6.37;;;11.60;99.90;;;;;;5093915;28;20187;-65
2022/06/24 11:03:22;;;;;;;13.33;7.60;;;11.50;99.90;;;;;;5093200;28;20359;-69
2022/06/24 11:05:51;;;;;;;7.50;5.63;;;11.50;99.90;;;;;;5064321;28;20188;-67
2022/06/24 11:08:23;;;;;;;7.13;5.13;;;11.60;99.90;;;;;;5093538;28;20249;-67
2022/06/24 11:10:51;;;;;;;7.30;4.97;;;11.60;99.90;;;;;;5093649;28;20212;-67
2022/06/24 11:13:24;;;;;;;4.90;4.40;;;11.70;99.90;;;;;;5093091;28;20220;-66
2022/06/24 11:15:58;;;;;;;5.27;3.90;;;11.80;99.90;;;;;;5092007;28;20238;-69
2022/06/24 11:18:35;;;;;;;6.57;4.80;;;11.70;99.90;;;;;;5093328;28;20214;-68
2022/06/24 11:21:04;;;;;;;4.53;4.00;;;11.60;99.90;;;;;;5093550;28;20187;-69
2022/06/24 11:23:33;;;;;;;5.97;3.77;;;11.60;99.90;;;;;;5093216;28;20668;-66
2022/06/24 11:26:02;;;;;;;4.47;2.93;;;11.50;99.90;;;;;;5093389;28;20704;-68
2022/06/24 11:28:35;;;;;;;5.70;2.20;;;11.40;99.90;;;;;;5092953;28;20184;-68
2022/06/24 11:31:18;;;;;;;3.73;2.30;;;11.60;99.90;;;;;;5093346;28;20530;-67
2022/06/24 11:33:47;;;;;;;3.60;2.37;;;11.60;99.90;;;;;;5093401;28;20560;-66
2022/06/24 11:36:15;;;;;;;5.80;2.50;;;11.60;99.90;;;;;;5092888;28;20278;-68
2022/06/24 11:38:59;;;;;;;5.90;2.57;;;11.60;99.90;;;;;;5090562;28;20177;-66
2022/06/24 11:41:34;;;;;;;4.37;2.33;;;11.50;99.90;;;;;;5083494;28;20176;-66
2022/06/24 11:44:02;;;;;;;3.30;2.43;;;11.40;99.90;;;;;;5079401;28;20195;-68
2022/06/24 11:46:29;;;;;;;3.13;2.20;;;11.40;99.90;;;;;;5064013;28;20657;-65
2022/06/24 11:49:08;;;;;;;8.60;2.83;;;11.20;99.90;;;;;;5090128;28;20647;-67
2022/06/24 11:51:36;;;;;;;5.77;2.60;;;11.20;99.90;;;;;;5092499;28;20179;-67
2022/06/24 11:54:06;;;;;;;4.07;2.70;;;11.10;99.90;;;;;;5081581;28;20215;-65
2022/06/24 11:56:35;;;;;;;4.60;2.43;;;11.00;99.90;;;;;;5081307;28;20177;-68
2022/06/24 11:59:07;;;;;;;6.97;2.83;;;11.00;99.90;;;;;;5082546;28;20240;-65
2022/06/24 12:01:38;;;;;;;4.30;2.47;;;11.00;99.90;;;;;;5080661;28;20185;-66
2022/06/24 12:04:10;;;;;;;4.03;2.40;;;11.00;99.90;;;;;;5093049;28;20200;-66
2022/06/24 12:06:39;;;;;;;3.27;2.30;;;11.00;99.90;;;;;;5093113;28;20642;-66
2022/06/24 12:09:07;;;;;;;3.70;2.57;;;10.90;99.90;;;;;;5093223;28;20189;-66
2022/06/24 12:11:40;;;;;;;4.23;2.33;;;10.90;99.90;;;;;;5092761;28;20170;-68
2022/06/24 12:14:15;;;;;;;4.67;2.40;;;10.90;99.90;;;;;;5079662;28;20237;-69
2022/06/24 12:17:03;;;;;;;3.83;2.60;;;11.00;99.90;;;;;;5092508;28;20186;-68
2022/06/24 12:19:33;;;;;;;6.43;2.60;;;10.90;99.90;;;;;;5077843;28;20212;-68
2022/06/24 12:22:11;;;;;;;6.17;2.77;;;10.80;99.90;;;;;;5087518;28;20208;-68
2022/06/24 12:24:42;;;;;;;3.70;2.50;;;10.80;99.90;;;;;;5089334;28;20264;-66
2022/06/24 12:27:10;;;;;;;5.07;2.47;;;10.80;99.90;;;;;;5076391;28;20325;-66
2022/06/24 12:29:43;;;;;;;3.53;2.37;;;10.70;99.90;;;;;;5093207;28;20183;-68
2022/06/24 12:32:11;;;;;;;3.77;2.60;;;10.60;99.90;;;;;;5078114;28;20710;-66
2022/06/24 12:34:41;;;;;;;4.07;2.70;;;10.50;99.90;;;;;;5096463;28;20214;-65
2022/06/24 12:37:13;;;;;;;3.87;2.60;;;10.40;99.90;;;;;;5096442;28;20185;-66
2022/06/24 12:39:43;;;;;;;4.23;2.63;;;10.30;99.90;;;;;;5077956;28;20577;-68
2022/06/24 12:42:17;;;;;;;6.43;3.60;;;10.20;99.90;;;;;;5096543;28;20300;-68
2022/06/24 12:44:55;;;;;;;7.27;2.80;;;10.20;99.90;;;;;;5096780;28;20632;-69
2022/06/24 12:53:04;;;;;;;4.27;3.17;;;10.40;99.90;;;;;;5096606;28;20189;-67
2022/06/24 12:55:33;;;;;;;4.87;2.93;;;10.70;99.90;;;;;;5096191;28;20513;-67
2022/06/24 12:58:01;;;;;;;5.43;3.37;;;10.80;99.90;;;;;;5096524;28;20538;-68
2022/06/24 13:00:29;;;;;;;4.33;2.23;;;11.00;99.90;;;;;;5095713;28;20189;-68
2022/06/24 13:02:59;;;;;;;5.90;2.90;;;11.00;99.90;;;;;;5095905;28;20208;-68
2022/06/24 13:05:26;;;;;;;3.63;2.73;;;11.10;99.90;;;;;;5095826;28;20274;-68
2022/06/24 13:07:54;;;;;;;6.77;3.13;;;11.20;99.90;;;;;;5075857;28;20222;-68
2022/06/24 13:10:22;;;;;;;4.17;2.90;;;11.50;99.90;;;;;;5086746;28;20176;-69
2022/06/24 13:12:50;;;;;;;5.70;4.67;;;11.50;99.90;;;;;;5095523;28;20664;-68
2022/06/24 13:15:18;;;;;;;12.03;9.83;;;11.50;99.90;;;;;;5095210;28;20198;-66